Time;durP1;ratioP1;P1;durP2;ratioP2;P2;SDS_P1;SDS_P2;PMS_P1;PMS_P2;Temp;Humidity;BMP_temperature;BMP_pressure;BME280_temperature;BME280_humidity;BME280_pressure;Samples;Min_cycle;Max_cycle;Signal;HPM_P1;HPM_P2
2021/07/08 00:02:17;;;;;;;12.48;9.00;;;16.50;99.90;;;;;;5006578;28;20434;-81
2021/07/08 00:04:43;;;;;;;12.40;8.25;;;16.40;99.90;;;;;;5006505;28;20026;-81
2021/07/08 00:07:10;;;;;;;12.07;8.95;;;16.40;99.90;;;;;;5006646;28;20108;-81
2021/07/08 00:09:36;;;;;;;11.23;8.48;;;16.40;99.90;;;;;;4988480;28;20434;-81
2021/07/08 00:12:02;;;;;;;10.15;7.97;;;16.40;99.90;;;;;;5006625;28;20092;-81
2021/07/08 00:14:28;;;;;;;10.18;8.85;;;16.40;99.90;;;;;;4988074;28;20025;-80
2021/07/08 00:16:53;;;;;;;11.00;7.68;;;16.40;99.90;;;;;;5006647;28;20033;-81
2021/07/08 00:19:19;;;;;;;14.27;8.15;;;16.40;99.90;;;;;;5006171;28;20030;-81
2021/07/08 00:21:45;;;;;;;12.85;7.97;;;16.40;99.90;;;;;;5006439;28;20026;-81
2021/07/08 00:24:10;;;;;;;8.10;7.18;;;16.40;99.90;;;;;;5006168;28;20065;-81
2021/07/08 00:26:36;;;;;;;11.65;8.27;;;16.40;99.90;;;;;;5006468;28;20030;-81
2021/07/08 00:29:03;;;;;;;8.45;7.32;;;16.40;99.90;;;;;;5005973;28;20383;-81
2021/07/08 00:31:29;;;;;;;8.27;7.35;;;16.30;99.90;;;;;;5006155;28;20104;-81
2021/07/08 00:33:55;;;;;;;11.60;6.57;;;16.40;99.90;;;;;;5006124;28;20557;-80
2021/07/08 00:36:20;;;;;;;13.05;6.72;;;16.30;99.90;;;;;;5008826;28;20026;-81
2021/07/08 00:38:46;;;;;;;9.50;6.57;;;16.30;99.90;;;;;;5009875;28;20132;-81
2021/07/08 00:41:12;;;;;;;12.07;6.93;;;16.30;99.90;;;;;;5009644;28;20844;-81
2021/07/08 00:43:37;;;;;;;11.45;7.05;;;16.30;99.90;;;;;;5009826;28;20037;-81
2021/07/08 00:46:04;;;;;;;9.02;6.80;;;16.30;99.90;;;;;;5009174;28;20817;-80
2021/07/08 00:48:30;;;;;;;11.23;6.78;;;16.30;99.90;;;;;;5009566;28;20108;-81
2021/07/08 00:50:56;;;;;;;6.50;5.80;;;16.40;99.90;;;;;;5009439;28;20130;-81
2021/07/08 00:53:22;;;;;;;6.40;5.80;;;16.30;99.90;;;;;;5009473;28;20021;-81
2021/07/08 00:56:00;;;;;;;12.15;6.38;;;16.30;99.90;;;;;;5009720;28;20030;-81
2021/07/08 00:58:26;;;;;;;7.40;5.75;;;16.40;99.90;;;;;;5009628;28;20197;-81
2021/07/08 01:00:52;;;;;;;6.97;5.65;;;16.40;99.90;;;;;;5009520;28;20360;-80
2021/07/08 01:03:18;;;;;;;10.65;7.32;;;16.40;99.90;;;;;;5009440;28;20029;-81
2021/07/08 01:05:46;;;;;;;8.38;6.32;;;16.40;99.90;;;;;;4992163;28;20052;-80
2021/07/08 01:08:12;;;;;;;9.13;6.55;;;16.40;99.90;;;;;;5009240;28;20026;-81
2021/07/08 01:10:40;;;;;;;6.88;6.07;;;16.40;99.90;;;;;;5009633;28;20026;-81
2021/07/08 01:13:05;;;;;;;10.57;6.05;;;16.50;99.90;;;;;;5009493;28;20748;-80
2021/07/08 01:15:32;;;;;;;8.20;6.35;;;16.50;99.90;;;;;;5009745;28;20033;-81
2021/07/08 01:17:58;;;;;;;6.95;5.65;;;16.50;99.90;;;;;;4992264;28;20052;-80
2021/07/08 01:20:27;;;;;;;5.78;4.93;;;16.50;99.90;;;;;;5008918;28;20026;-81
2021/07/08 01:22:59;;;;;;;8.38;5.38;;;16.50;99.90;;;;;;5009080;28;20026;-81
2021/07/08 01:25:27;;;;;;;7.75;5.78;;;16.50;99.90;;;;;;5009067;28;20022;-81
2021/07/08 01:27:54;;;;;;;6.63;5.60;;;16.50;99.90;;;;;;5009191;28;20030;-81
2021/07/08 01:30:20;;;;;;;8.43;5.93;;;16.50;99.90;;;;;;5008737;28;20045;-81
2021/07/08 01:32:46;;;;;;;6.13;5.32;;;16.50;99.90;;;;;;5009473;28;20033;-81
2021/07/08 01:35:13;;;;;;;8.18;5.30;;;16.50;99.90;;;;;;5008750;28;20033;-81
2021/07/08 01:37:39;;;;;;;9.20;5.18;;;16.50;99.90;;;;;;5015889;28;20355;-81
2021/07/08 01:40:09;;;;;;;6.13;4.95;;;16.50;99.90;;;;;;4997410;28;20037;-81
2021/07/08 01:42:35;;;;;;;7.45;4.53;;;16.50;99.90;;;;;;5008406;28;20053;-81
2021/07/08 01:45:02;;;;;;;6.30;4.45;;;16.50;99.90;;;;;;5008472;28;20099;-81
2021/07/08 01:47:27;;;;;;;9.38;4.53;;;16.50;99.90;;;;;;5007861;28;20372;-81
2021/07/08 01:49:53;;;;;;;5.82;5.22;;;16.40;99.90;;;;;;5008589;28;20029;-81
2021/07/08 01:52:19;;;;;;;5.82;4.65;;;16.40;99.90;;;;;;5008343;28;20074;-80
2021/07/08 01:54:44;;;;;;;5.95;4.47;;;16.40;99.90;;;;;;5008411;28;20436;-81
2021/07/08 01:57:11;;;;;;;7.00;4.25;;;16.40;99.90;;;;;;5008392;28;20124;-80
2021/07/08 01:59:37;;;;;;;6.47;4.18;;;16.40;99.90;;;;;;5008322;28;20038;-81
2021/07/08 02:02:02;;;;;;;8.27;4.20;;;16.40;99.90;;;;;;5007818;28;20022;-81
2021/07/08 02:04:28;;;;;;;7.20;4.05;;;16.40;99.90;;;;;;5007898;28;20022;-80
2021/07/08 02:06:54;;;;;;;7.28;4.13;;;16.40;99.90;;;;;;4990424;28;20487;-81
2021/07/08 02:09:20;;;;;;;9.15;4.22;;;16.40;99.90;;;;;;5008201;28;20040;-81
2021/07/08 02:11:45;;;;;;;8.00;4.10;;;16.40;99.90;;;;;;5008039;28;20071;-81
2021/07/08 02:14:11;;;;;;;9.45;4.85;;;16.40;99.90;;;;;;5018154;28;20505;-81
2021/07/08 02:16:36;;;;;;;7.07;3.97;;;16.40;99.90;;;;;;5011514;28;20425;-81
2021/07/08 02:19:07;;;;;;;6.18;3.95;;;16.40;99.90;;;;;;5008055;28;20030;-81
2021/07/08 02:21:32;;;;;;;5.25;3.78;;;16.40;99.90;;;;;;5007459;28;20356;-81
2021/07/08 02:23:58;;;;;;;5.20;4.18;;;16.40;99.90;;;;;;5007855;28;20049;-81
2021/07/08 02:26:24;;;;;;;5.30;4.18;;;16.40;99.90;;;;;;4990256;28;20060;-81
2021/07/08 02:28:51;;;;;;;5.03;3.85;;;16.50;99.90;;;;;;5012861;28;20111;-81
2021/07/08 02:31:17;;;;;;;5.00;3.42;;;16.40;99.90;;;;;;5007948;28;20022;-80
2021/07/08 02:33:43;;;;;;;7.03;4.05;;;16.40;99.90;;;;;;5007343;28;20091;-81
2021/07/08 02:36:09;;;;;;;5.45;4.13;;;16.40;99.90;;;;;;5007176;28;20862;-80
2021/07/08 02:38:36;;;;;;;4.97;3.63;;;16.40;99.90;;;;;;5007079;28;20026;-81
2021/07/08 02:41:03;;;;;;;4.80;4.13;;;16.40;99.90;;;;;;5007465;28;20091;-80
2021/07/08 02:43:29;;;;;;;5.95;4.43;;;16.40;99.90;;;;;;5007395;28;20045;-80
2021/07/08 02:45:54;;;;;;;7.75;5.05;;;16.40;99.90;;;;;;4981322;28;20046;-81
2021/07/08 02:48:21;;;;;;;6.70;4.30;;;16.40;99.90;;;;;;4968519;28;20157;-81
2021/07/08 02:50:51;;;;;;;7.55;4.72;;;16.40;99.90;;;;;;4968134;28;20125;-81
2021/07/08 02:53:18;;;;;;;6.55;4.78;;;16.40;99.90;;;;;;4967942;28;20034;-81
2021/07/08 02:55:44;;;;;;;6.38;4.72;;;16.50;99.90;;;;;;4968507;28;20499;-80
2021/07/08 02:58:11;;;;;;;6.45;5.15;;;16.40;99.90;;;;;;4967215;28;20039;-81
2021/07/08 03:00:37;;;;;;;5.68;4.80;;;16.40;99.90;;;;;;4968366;28;20396;-80
2021/07/08 03:03:03;;;;;;;9.77;5.38;;;16.40;99.90;;;;;;4968131;28;20392;-80
2021/07/08 03:05:29;;;;;;;6.47;4.60;;;16.50;99.90;;;;;;4968352;28;20102;-81
2021/07/08 03:07:55;;;;;;;7.00;4.95;;;16.50;99.90;;;;;;4968224;28;20536;-80
2021/07/08 03:10:23;;;;;;;8.68;5.20;;;16.50;99.90;;;;;;4967798;28;20057;-81
2021/07/08 03:12:49;;;;;;;8.48;5.18;;;16.50;99.90;;;;;;4967982;28;20857;-81
2021/07/08 03:15:15;;;;;;;6.43;5.38;;;16.50;99.90;;;;;;4968092;28;20133;-81
2021/07/08 03:17:42;;;;;;;6.05;5.03;;;16.50;99.90;;;;;;4966364;28;20035;-80
2021/07/08 03:20:11;;;;;;;8.25;5.15;;;16.40;99.90;;;;;;4968007;28;20038;-81
2021/07/08 03:22:41;;;;;;;12.55;5.03;;;16.50;99.90;;;;;;4967937;28;20031;-80
2021/07/08 03:25:08;;;;;;;7.53;5.55;;;16.50;99.90;;;;;;4967752;28;20042;-80
2021/07/08 03:27:34;;;;;;;7.82;5.13;;;16.50;99.90;;;;;;4967757;28;20078;-80
2021/07/08 03:30:00;;;;;;;6.57;5.13;;;16.50;99.90;;;;;;4967763;28;20078;-80
2021/07/08 03:32:25;;;;;;;6.72;5.63;;;16.50;99.90;;;;;;4967907;28;20019;-80
2021/07/08 03:34:51;;;;;;;6.00;5.38;;;16.50;99.90;;;;;;4967831;28;20031;-80
2021/07/08 03:37:16;;;;;;;7.20;5.20;;;16.50;99.90;;;;;;4966323;28;20096;-80
2021/07/08 03:39:42;;;;;;;8.02;5.35;;;16.50;99.90;;;;;;4967734;28;20085;-80
2021/07/08 03:42:08;;;;;;;6.60;5.10;;;16.50;99.90;;;;;;4967600;28;20070;-80
2021/07/08 03:44:34;;;;;;;8.77;5.18;;;16.50;99.90;;;;;;4968301;28;20019;-80
2021/07/08 03:46:59;;;;;;;7.20;4.90;;;16.50;99.90;;;;;;4994802;28;20061;-80
2021/07/08 03:49:25;;;;;;;9.38;4.60;;;16.50;99.90;;;;;;5007373;28;20034;-79
2021/07/08 03:51:50;;;;;;;6.35;4.55;;;16.50;99.90;;;;;;5010966;28;20494;-77
2021/07/08 03:54:16;;;;;;;7.30;4.45;;;16.50;99.90;;;;;;5011787;28;20034;-79
2021/07/08 03:56:42;;;;;;;8.90;4.30;;;16.50;99.90;;;;;;5011993;28;20475;-76
2021/07/08 03:59:08;;;;;;;7.75;4.78;;;16.50;99.90;;;;;;4995316;28;20030;-76
2021/07/08 04:01:33;;;;;;;6.45;4.30;;;16.60;99.90;;;;;;5013158;28;20382;-76
2021/07/08 04:03:59;;;;;;;6.60;4.15;;;16.60;99.90;;;;;;5013052;28;20045;-76
2021/07/08 04:06:24;;;;;;;8.63;4.43;;;16.60;99.90;;;;;;5012965;28;20122;-76
2021/07/08 04:08:50;;;;;;;6.95;4.60;;;16.60;99.90;;;;;;5013291;28;20034;-76
2021/07/08 04:11:16;;;;;;;8.38;4.65;;;16.60;99.90;;;;;;5018038;28;20037;-76
2021/07/08 04:13:41;;;;;;;6.47;4.55;;;16.60;99.90;;;;;;5036392;28;20099;-76
2021/07/08 04:16:07;;;;;;;5.15;4.63;;;16.60;99.90;;;;;;5036474;28;20030;-75
2021/07/08 04:18:33;;;;;;;8.25;4.70;;;16.60;99.90;;;;;;5036490;28;20060;-76
2021/07/08 04:20:58;;;;;;;6.90;4.65;;;16.60;99.90;;;;;;5031815;28;20026;-80
2021/07/08 04:23:24;;;;;;;7.93;4.50;;;16.60;99.90;;;;;;5028160;28;20025;-80
2021/07/08 04:25:50;;;;;;;10.43;4.80;;;16.60;99.90;;;;;;5029273;28;20048;-80
2021/07/08 04:28:16;;;;;;;5.95;4.85;;;16.60;99.90;;;;;;5025219;28;20094;-80
2021/07/08 04:30:42;;;;;;;7.13;4.75;;;16.60;99.90;;;;;;5027997;28;20146;-80
2021/07/08 04:33:08;;;;;;;7.53;5.50;;;16.60;99.90;;;;;;5028467;28;20088;-80
2021/07/08 04:38:05;;;;;;;6.15;4.85;;;16.60;99.90;;;;;;5024200;28;20031;-80
2021/07/08 04:40:30;;;;;;;7.82;5.18;;;16.60;99.90;;;;;;5026098;28;20104;-80
2021/07/08 04:42:56;;;;;;;7.20;4.30;;;16.60;99.90;;;;;;5027432;28;20517;-80
2021/07/08 04:45:22;;;;;;;8.68;5.43;;;16.60;99.90;;;;;;5028174;28;20116;-80
2021/07/08 04:47:48;;;;;;;7.72;5.32;;;16.60;99.90;;;;;;5029192;28;20025;-72
2021/07/08 04:50:16;;;;;;;6.95;5.40;;;16.60;99.90;;;;;;5025750;28;20096;-72
2021/07/08 04:52:43;;;;;;;7.28;5.75;;;16.60;99.90;;;;;;5024971;28;20060;-72
2021/07/08 04:55:10;;;;;;;6.85;5.90;;;16.60;99.90;;;;;;5020645;28;20110;-72
2021/07/08 04:57:36;;;;;;;6.70;6.03;;;16.60;99.90;;;;;;5015240;28;20498;-71
2021/07/08 05:00:08;;;;;;;11.50;9.15;;;16.60;99.90;;;;;;5025024;28;20083;-72
2021/07/08 05:02:35;;;;;;;13.95;9.02;;;16.70;99.90;;;;;;5017216;28;20030;-72
2021/07/08 05:05:00;;;;;;;12.70;8.82;;;16.70;99.90;;;;;;5024334;28;20101;-72
2021/07/08 05:07:26;;;;;;;12.05;9.55;;;16.70;99.90;;;;;;5023812;28;20129;-71
2021/07/08 05:09:51;;;;;;;13.65;11.15;;;16.70;99.90;;;;;;5017533;28;20101;-71
2021/07/08 05:12:17;;;;;;;13.15;11.75;;;16.70;99.90;;;;;;5011138;28;20029;-71
2021/07/08 05:14:42;;;;;;;16.85;13.38;;;16.70;99.90;;;;;;5027861;28;20136;-73
2021/07/08 05:17:08;;;;;;;14.63;12.75;;;16.70;99.90;;;;;;5022501;28;20048;-72
2021/07/08 05:19:33;;;;;;;17.33;13.85;;;16.80;99.90;;;;;;5011898;28;20041;-72
2021/07/08 05:22:00;;;;;;;18.77;14.82;;;16.80;99.90;;;;;;5009527;28;20033;-72
2021/07/08 05:24:26;;;;;;;16.17;14.05;;;16.80;99.90;;;;;;5026032;28;20461;-72
2021/07/08 05:26:53;;;;;;;17.33;14.27;;;16.90;99.90;;;;;;5029543;28;20071;-71
2021/07/08 05:29:22;;;;;;;18.05;16.02;;;16.90;99.90;;;;;;5028900;28;20029;-72
2021/07/08 05:31:48;;;;;;;25.35;17.40;;;16.90;99.90;;;;;;5012638;28;20073;-73
2021/07/08 05:34:13;;;;;;;22.65;16.00;;;17.00;99.90;;;;;;5010463;28;20038;-72
2021/07/08 05:36:39;;;;;;;17.98;16.08;;;17.00;99.90;;;;;;5014633;28;20125;-72
2021/07/08 05:39:05;;;;;;;22.67;17.08;;;17.00;99.90;;;;;;4998196;28;20120;-72
2021/07/08 05:41:31;;;;;;;19.58;16.98;;;17.00;99.90;;;;;;5029987;28;20087;-75
2021/07/08 05:43:56;;;;;;;21.45;18.52;;;17.00;99.90;;;;;;5014768;28;20033;-75
2021/07/08 05:46:22;;;;;;;25.35;19.30;;;17.00;99.90;;;;;;5019378;28;20078;-75
2021/07/08 05:48:48;;;;;;;23.70;20.05;;;17.00;99.90;;;;;;5010805;28;20056;-75
2021/07/08 05:51:14;;;;;;;23.98;21.23;;;17.00;99.90;;;;;;5008921;28;20037;-75
2021/07/08 05:53:40;;;;;;;25.98;21.65;;;17.00;99.90;;;;;;5007695;28;20049;-75
2021/07/08 05:56:06;;;;;;;27.25;21.50;;;17.00;99.90;;;;;;5008722;28;20482;-75
2021/07/08 05:58:31;;;;;;;24.60;21.48;;;17.00;99.90;;;;;;5013227;28;20119;-74
2021/07/08 06:00:58;;;;;;;25.15;22.45;;;17.00;99.90;;;;;;5010600;28;20034;-74
2021/07/08 06:03:24;;;;;;;24.80;22.05;;;17.00;99.90;;;;;;5027422;28;20087;-74
2021/07/08 06:05:50;;;;;;;26.75;23.25;;;17.10;99.90;;;;;;5013692;28;20033;-74
2021/07/08 06:08:18;;;;;;;29.65;22.65;;;17.10;99.90;;;;;;5011242;28;20100;-74
2021/07/08 06:10:44;;;;;;;24.80;22.23;;;17.10;99.90;;;;;;5021456;28;20037;-74
2021/07/08 06:13:10;;;;;;;25.55;22.85;;;17.10;99.90;;;;;;5011627;28;20055;-74
2021/07/08 06:15:36;;;;;;;28.13;22.92;;;17.10;99.90;;;;;;5011518;28;21366;-74
2021/07/08 06:18:02;;;;;;;29.77;23.52;;;17.10;99.90;;;;;;5017764;28;20043;-74
2021/07/08 06:20:28;;;;;;;25.52;22.77;;;17.10;99.90;;;;;;5016392;28;20041;-74
2021/07/08 06:22:54;;;;;;;26.77;23.65;;;17.20;99.90;;;;;;5013284;28;20030;-74
2021/07/08 06:25:19;;;;;;;27.48;22.92;;;17.20;99.90;;;;;;5025561;28;20413;-74
2021/07/08 06:27:45;;;;;;;25.75;22.95;;;17.20;99.90;;;;;;5024602;28;20132;-74
2021/07/08 06:30:12;;;;;;;23.52;21.13;;;17.30;99.90;;;;;;5012271;28;20408;-75
2021/07/08 06:32:37;;;;;;;26.20;23.35;;;17.30;99.90;;;;;;5030900;28;20083;-74
2021/07/08 06:35:06;;;;;;;24.77;22.33;;;17.40;99.90;;;;;;5034271;28;20041;-74
2021/07/08 06:37:32;;;;;;;24.13;21.75;;;17.40;99.90;;;;;;5035627;28;20029;-73
2021/07/08 06:39:57;;;;;;;26.73;22.65;;;17.50;99.90;;;;;;5017373;28;20390;-74
2021/07/08 06:42:23;;;;;;;23.58;21.08;;;17.50;99.90;;;;;;5017864;28;20026;-73
2021/07/08 06:44:48;;;;;;;22.45;20.15;;;17.70;99.90;;;;;;5035891;28;20025;-73
2021/07/08 06:47:16;;;;;;;23.83;21.30;;;17.70;99.90;;;;;;5035289;28;20389;-73
2021/07/08 06:49:43;;;;;;;22.55;20.25;;;17.80;99.90;;;;;;5034030;28;20026;-73
2021/07/08 06:52:09;;;;;;;21.77;19.65;;;18.00;99.90;;;;;;5015851;28;20378;-73
2021/07/08 06:54:34;;;;;;;22.63;19.83;;;18.20;99.90;;;;;;5033614;28;20033;-73
2021/07/08 06:57:00;;;;;;;22.15;19.85;;;18.30;99.90;;;;;;5033656;28;20032;-73
2021/07/08 06:59:25;;;;;;;21.17;19.10;;;18.40;99.90;;;;;;5033705;28;20032;-73
2021/07/08 07:01:51;;;;;;;21.40;19.10;;;18.40;99.90;;;;;;5033729;28;20101;-71
2021/07/08 07:04:16;;;;;;;21.52;19.25;;;18.40;99.90;;;;;;5016182;28;20378;-76
2021/07/08 07:06:42;;;;;;;20.63;18.52;;;18.40;99.90;;;;;;5016174;28;20036;-79
2021/07/08 07:09:08;;;;;;;21.80;19.63;;;18.50;99.90;;;;;;5014639;28;20905;-78
2021/07/08 07:11:33;;;;;;;20.55;18.55;;;18.40;99.90;;;;;;5019715;28;20509;-73
2021/07/08 07:13:59;;;;;;;20.05;18.02;;;18.40;99.90;;;;;;5033815;28;20102;-75
2021/07/08 07:16:25;;;;;;;21.20;18.20;;;18.40;99.90;;;;;;5029031;28;20052;-74
2021/07/08 07:18:51;;;;;;;19.27;17.27;;;18.40;99.90;;;;;;5013575;28;20041;-72
2021/07/08 07:21:16;;;;;;;19.27;17.35;;;18.30;99.90;;;;;;5013787;28;20466;-72
2021/07/08 07:23:42;;;;;;;20.20;18.15;;;18.30;99.90;;;;;;5009831;28;20030;-77
2021/07/08 07:26:08;;;;;;;20.75;17.77;;;18.30;99.90;;;;;;5021736;28;20492;-77
2021/07/08 07:28:34;;;;;;;19.83;17.73;;;18.20;99.90;;;;;;5014378;28;20034;-77
2021/07/08 07:31:00;;;;;;;19.15;17.35;;;18.20;99.90;;;;;;5015796;28;20037;-77
2021/07/08 07:33:25;;;;;;;19.58;17.08;;;18.20;99.90;;;;;;5015994;28;20172;-77
2021/07/08 07:35:51;;;;;;;19.40;17.50;;;18.20;99.90;;;;;;5009863;28;20111;-77
2021/07/08 07:38:18;;;;;;;19.75;17.77;;;18.20;99.90;;;;;;5016361;28;20049;-74
2021/07/08 07:40:44;;;;;;;20.05;18.02;;;18.20;99.90;;;;;;5012943;28;20160;-74
2021/07/08 07:43:10;;;;;;;20.98;18.75;;;18.30;99.90;;;;;;5010242;28;20497;-77
2021/07/08 07:45:37;;;;;;;18.52;16.83;;;18.30;99.90;;;;;;5025575;28;20071;-74
2021/07/08 07:48:03;;;;;;;19.27;17.48;;;18.40;99.90;;;;;;5039772;28;20029;-72
2021/07/08 07:50:32;;;;;;;21.48;19.20;;;18.40;99.90;;;;;;5021728;28;20052;-72
2021/07/08 07:52:58;;;;;;;21.45;19.35;;;18.50;99.90;;;;;;5039843;28;20036;-74
2021/07/08 07:55:27;;;;;;;21.85;19.63;;;18.50;99.90;;;;;;5039386;28;20087;-74
2021/07/08 07:57:59;;;;;;;22.75;20.42;;;18.50;99.90;;;;;;5039618;28;20036;-74
2021/07/08 08:00:26;;;;;;;24.25;21.75;;;18.60;99.90;;;;;;5039397;28;20032;-77
2021/07/08 08:02:52;;;;;;;25.30;22.75;;;18.60;99.90;;;;;;5002617;28;20188;-74
2021/07/08 08:05:22;;;;;;;24.58;21.98;;;18.50;99.90;;;;;;5024537;28;20188;-77
2021/07/08 08:10:32;;;;;;;25.15;22.58;;;18.50;99.90;;;;;;5022709;28;20045;-77
2021/07/08 08:12:59;;;;;;;24.30;21.70;;;18.50;99.90;;;;;;5012120;28;20026;-77
2021/07/08 08:15:24;;;;;;;24.75;21.60;;;18.50;99.90;;;;;;5013220;28;20088;-77
2021/07/08 08:17:50;;;;;;;24.88;22.27;;;18.50;99.90;;;;;;5031420;28;20046;-77
2021/07/08 08:20:16;;;;;;;25.45;22.80;;;18.50;99.90;;;;;;5023862;28;20553;-77
2021/07/08 08:22:43;;;;;;;24.45;21.88;;;18.50;99.90;;;;;;5036497;28;20025;-72
2021/07/08 08:25:10;;;;;;;25.08;22.58;;;18.50;99.90;;;;;;5040054;28;20099;-72
2021/07/08 08:27:37;;;;;;;26.77;22.60;;;18.40;99.90;;;;;;5039772;28;20021;-72
2021/07/08 08:30:07;;;;;;;25.70;23.10;;;18.30;99.90;;;;;;5021923;28;20461;-72
2021/07/08 08:32:33;;;;;;;25.92;23.33;;;18.30;99.90;;;;;;5039943;28;20152;-74
2021/07/08 08:34:58;;;;;;;27.02;24.40;;;18.40;99.90;;;;;;5037192;28;20104;-73
2021/07/08 08:37:24;;;;;;;28.00;25.00;;;18.30;99.90;;;;;;5036502;28;20359;-72
2021/07/08 08:39:49;;;;;;;25.55;22.85;;;18.40;99.90;;;;;;5025162;28;20042;-77
2021/07/08 08:42:15;;;;;;;26.92;24.20;;;18.40;99.90;;;;;;5027444;28;20033;-77
2021/07/08 08:44:41;;;;;;;24.52;22.13;;;18.40;99.90;;;;;;5027486;28;20036;-78
2021/07/08 08:47:10;;;;;;;25.75;23.00;;;18.40;99.90;;;;;;5030309;28;20151;-77
2021/07/08 08:49:41;;;;;;;20.55;18.42;;;18.40;99.90;;;;;;5031545;28;20132;-78
2021/07/08 08:52:10;;;;;;;22.27;19.70;;;18.50;99.90;;;;;;5034365;28;20033;-74
2021/07/08 08:54:39;;;;;;;21.73;19.63;;;18.60;99.90;;;;;;5039099;28;20025;-74
2021/07/08 08:57:04;;;;;;;21.58;19.33;;;18.70;99.90;;;;;;5035304;28;20037;-74
2021/07/08 08:59:30;;;;;;;20.25;17.75;;;18.80;99.90;;;;;;5036076;28;20033;-74
2021/07/08 09:02:17;;;;;;;21.60;19.17;;;18.90;99.90;;;;;;5030270;28;20048;-78
2021/07/08 09:04:44;;;;;;;20.83;18.70;;;18.90;99.90;;;;;;5027327;28;20018;-73
2021/07/08 09:07:31;;;;;;;21.25;19.02;;;18.90;99.90;;;;;;5035909;28;20033;-72
2021/07/08 09:10:09;;;;;;;22.75;20.45;;;19.00;99.90;;;;;;5035878;28;20065;-72
2021/07/08 09:12:34;;;;;;;21.55;19.30;;;19.00;99.90;;;;;;5017593;28;20034;-72
2021/07/08 09:15:20;;;;;;;21.40;19.33;;;18.90;99.90;;;;;;5036029;28;20044;-72
2021/07/08 09:17:47;;;;;;;19.38;17.45;;;19.00;99.90;;;;;;5035483;28;20026;-72
2021/07/08 09:20:18;;;;;;;19.83;17.77;;;19.00;99.90;;;;;;5035317;28;20560;-73
2021/07/08 09:22:47;;;;;;;19.65;17.75;;;19.00;99.90;;;;;;5035517;28;20127;-72
2021/07/08 09:25:19;;;;;;;21.50;19.40;;;19.10;99.90;;;;;;5035746;28;20029;-72
2021/07/08 09:27:46;;;;;;;19.23;17.35;;;19.40;99.90;;;;;;5035079;28;20025;-72
2021/07/08 09:30:27;;;;;;;18.05;15.40;;;19.60;99.90;;;;;;5035369;28;20040;-72
2021/07/08 09:32:54;;;;;;;15.85;14.38;;;19.70;99.90;;;;;;5035078;28;20076;-73
2021/07/08 09:35:35;;;;;;;15.68;13.77;;;19.80;99.90;;;;;;5026098;28;20085;-77
2021/07/08 09:38:22;;;;;;;17.35;15.68;;;19.80;99.90;;;;;;5020734;28;20040;-77
2021/07/08 09:41:11;;;;;;;16.08;14.48;;;19.80;99.90;;;;;;5010732;28;20030;-77
2021/07/08 09:43:38;;;;;;;17.35;15.55;;;19.80;99.90;;;;;;5014464;28;20030;-77
2021/07/08 09:46:04;;;;;;;15.95;14.45;;;19.80;99.90;;;;;;5024397;28;20061;-77
2021/07/08 09:48:30;;;;;;;16.27;13.98;;;19.80;99.90;;;;;;5032473;28;20377;-73
2021/07/08 09:50:56;;;;;;;16.83;15.10;;;19.80;99.90;;;;;;5034621;28;20022;-74
2021/07/08 09:53:26;;;;;;;19.48;15.23;;;19.70;99.90;;;;;;5034498;28;20030;-74
2021/07/08 09:58:57;;;;;;;16.80;15.13;;;19.70;99.90;;;;;;4983773;28;20470;-77
2021/07/08 10:01:24;;;;;;;16.58;14.85;;;19.70;99.90;;;;;;5012625;28;20481;-74
2021/07/08 10:03:51;;;;;;;16.52;14.95;;;19.70;99.90;;;;;;5034760;28;20032;-74
2021/07/08 10:06:18;;;;;;;14.77;13.43;;;19.70;99.90;;;;;;5034912;28;20030;-74
2021/07/08 10:08:44;;;;;;;14.50;12.98;;;19.80;99.90;;;;;;5034197;28;20442;-74
2021/07/08 10:11:19;;;;;;;16.00;14.40;;;19.80;99.90;;;;;;5034558;28;20026;-74
2021/07/08 10:13:45;;;;;;;;;;;19.80;99.90;;;;;;5034572;28;20589;-74
2021/07/08 10:16:13;;;;;;;15.65;14.00;;;19.80;99.90;;;;;;5034669;28;19945;-75
2021/07/08 10:18:42;;;;;;;14.80;13.30;;;19.80;99.90;;;;;;5034770;28;20116;-75
2021/07/08 10:21:08;;;;;;;13.20;11.85;;;19.70;99.90;;;;;;5033933;28;20095;-75
2021/07/08 10:23:36;;;;;;;15.63;12.95;;;19.70;99.90;;;;;;5017038;28;20031;-75
2021/07/08 10:26:03;;;;;;;13.68;12.38;;;19.70;99.90;;;;;;5034259;28;20068;-75
2021/07/08 10:28:32;;;;;;;16.05;12.32;;;19.70;99.90;;;;;;5033727;28;20103;-74
2021/07/08 10:30:58;;;;;;;13.82;12.43;;;19.80;99.90;;;;;;5034221;28;20029;-74
2021/07/08 10:33:24;;;;;;;14.07;12.35;;;19.80;99.90;;;;;;5034200;28;20029;-75
2021/07/08 10:35:52;;;;;;;14.23;12.82;;;19.80;99.90;;;;;;5033757;28;20068;-74
2021/07/08 10:38:34;;;;;;;14.00;12.70;;;19.90;99.90;;;;;;5033789;28;20030;-74
2021/07/08 10:41:12;;;;;;;14.32;13.02;;;20.00;99.90;;;;;;5033956;28;20032;-74
2021/07/08 10:43:43;;;;;;;19.10;15.82;;;20.10;99.90;;;;;;5032810;28;20026;-74
2021/07/08 10:46:10;;;;;;;17.17;15.45;;;20.20;99.90;;;;;;5006039;28;20054;-74
2021/07/08 10:48:50;;;;;;;19.05;17.23;;;20.20;99.90;;;;;;4994619;28;20448;-75
2021/07/08 10:51:28;;;;;;;18.67;16.75;;;20.20;99.90;;;;;;4994315;28;20033;-75
2021/07/08 10:53:54;;;;;;;20.55;16.95;;;20.30;99.90;;;;;;4994542;28;20026;-75
2021/07/08 10:56:22;;;;;;;20.15;18.13;;;20.40;99.90;;;;;;4994483;28;20360;-77
2021/07/08 10:58:52;;;;;;;21.05;19.02;;;20.40;99.90;;;;;;4983355;28;20031;-77
2021/07/08 11:01:20;;;;;;;23.08;20.73;;;20.40;99.90;;;;;;4984282;28;20479;-78
2021/07/08 11:03:47;;;;;;;23.90;21.63;;;20.30;99.90;;;;;;4985843;28;20038;-77
2021/07/08 11:06:20;;;;;;;24.00;21.17;;;20.20;99.90;;;;;;4985922;28;20038;-77
2021/07/08 11:08:46;;;;;;;23.45;21.25;;;19.90;99.90;;;;;;4977842;28;20109;-77
2021/07/08 11:11:21;;;;;;;24.95;22.55;;;19.80;99.90;;;;;;4978868;28;20105;-77
2021/07/08 11:13:50;;;;;;;25.52;21.67;;;19.60;99.90;;;;;;4977825;28;20032;-77
2021/07/08 11:16:44;;;;;;;23.55;21.05;;;19.50;99.90;;;;;;4974985;28;20251;-77
2021/07/08 11:19:30;;;;;;;25.92;22.58;;;19.40;99.90;;;;;;4970427;28;20026;-77
2021/07/08 11:21:58;;;;;;;25.42;22.13;;;19.40;99.90;;;;;;4974071;28;20027;-74
2021/07/08 11:24:40;;;;;;;22.15;19.95;;;19.30;99.90;;;;;;4974441;28;20033;-73
2021/07/08 11:27:07;;;;;;;20.63;18.45;;;19.30;99.90;;;;;;4971047;28;20752;-78
2021/07/08 11:29:58;;;;;;;20.83;18.73;;;19.30;99.90;;;;;;4974156;28;20018;-78
2021/07/08 11:32:39;;;;;;;22.80;20.35;;;19.30;99.90;;;;;;4983442;28;20094;-74
2021/07/08 11:37:59;;;;;;;17.75;15.75;;;19.50;99.90;;;;;;4980386;28;20108;-78
2021/07/08 11:40:25;;;;;;;15.30;13.77;;;19.50;99.90;;;;;;4969103;28;20130;-78
2021/07/08 11:42:51;;;;;;;12.18;11.05;;;19.70;99.90;;;;;;4967095;28;20797;-78
2021/07/08 11:45:26;;;;;;;11.35;10.23;;;19.80;99.90;;;;;;4976889;28;20041;-78
2021/07/08 11:47:54;;;;;;;9.73;8.82;;;19.90;99.90;;;;;;4965164;28;20042;-78
2021/07/08 11:50:27;;;;;;;8.30;7.60;;;20.00;99.90;;;;;;4980127;28;20023;-78
2021/07/08 11:53:07;;;;;;;8.85;7.68;;;20.00;99.90;;;;;;4976398;28;20096;-78
2021/07/08 11:55:34;;;;;;;10.45;8.70;;;20.00;99.90;;;;;;4968783;28;20030;-78
2021/07/08 11:58:03;;;;;;;8.85;8.00;;;20.00;99.90;;;;;;4980265;28;20015;-78
2021/07/08 12:00:40;;;;;;;8.00;7.20;;;20.00;99.90;;;;;;4983703;28;20713;-78
2021/07/08 12:03:27;;;;;;;6.25;5.60;;;19.90;99.90;;;;;;4983426;28;20415;-78
2021/07/08 12:06:02;;;;;;;5.03;4.43;;;19.90;99.90;;;;;;4970467;28;20031;-77
2021/07/08 12:08:40;;;;;;;5.70;3.92;;;19.80;99.90;;;;;;4981511;28;20078;-77
2021/07/08 12:11:14;;;;;;;3.97;3.58;;;19.70;99.90;;;;;;4987040;28;20031;-78
2021/07/08 12:13:47;;;;;;;5.18;3.55;;;19.60;99.90;;;;;;4981214;28;20034;-78
2021/07/08 12:16:13;;;;;;;4.82;3.10;;;19.50;99.90;;;;;;4980524;28;20040;-77
2021/07/08 12:18:44;;;;;;;4.85;3.65;;;19.30;99.90;;;;;;4981499;28;20450;-78
2021/07/08 12:21:38;;;;;;;3.35;3.03;;;19.20;99.90;;;;;;4980832;28;20030;-78
2021/07/08 12:24:19;;;;;;;5.88;3.80;;;19.10;99.90;;;;;;4980821;28;20027;-78
2021/07/08 12:26:45;;;;;;;11.73;4.93;;;19.00;99.90;;;;;;4981896;28;20394;-75
2021/07/08 12:29:26;;;;;;;9.70;5.00;;;18.80;99.90;;;;;;4993516;28;20037;-75
2021/07/08 12:32:04;;;;;;;9.70;5.80;;;18.60;99.90;;;;;;4995603;28;20317;-75
2021/07/08 12:34:34;;;;;;;10.80;6.63;;;18.50;99.90;;;;;;4997410;28;20053;-75
2021/07/08 12:37:20;;;;;;;7.85;6.30;;;18.40;99.90;;;;;;4997188;28;20026;-75
2021/07/08 12:39:56;;;;;;;9.93;7.57;;;18.20;99.90;;;;;;4996945;28;20057;-75
2021/07/08 12:42:26;;;;;;;11.10;8.00;;;18.20;99.90;;;;;;4996846;28;20105;-75
2021/07/08 12:44:57;;;;;;;9.23;7.40;;;18.10;99.90;;;;;;4995573;28;20471;-75
2021/07/08 12:47:23;;;;;;;7.80;6.95;;;18.00;99.90;;;;;;5030298;28;20433;-75
2021/07/08 12:49:54;;;;;;;7.40;6.28;;;17.90;99.90;;;;;;5018330;28;20022;-75
2021/07/08 12:52:22;;;;;;;8.45;6.78;;;18.00;99.90;;;;;;5036481;28;20018;-75